Search for airport 
image banner adimage banner adimage banner ad
image banner ad

64CA - Tahoe Forest Hospital

Located in Truckee, United States

ICAO - 64CA, IATA -

Data provided by Airmate  

General information

Coordinates: N39°19'27" W120°12'1"
Elevation is 5200 feet MSL.
Magnetic variation is 16° East
View others Airports in California

Operational data

Special qualification required
Current time UTC:
Current local time:
Weather at : KTRK - Truckee-Tahoe ( 5 km )
METAR: KTRK 210158Z AUTO 33004KT 10SM CLR 17/M06 A3031 RMK AO2
TAF: KTRK 202320Z 2100/2124 35006KT P6SM SKC FM210400 00000KT P6SM SKC FM212000 23007KT P6SM SKC
View NOTAMs / SUP AIP / TFR affecting this airport [VIEW]
Communications frequencies: [VIEW]

Runways:

Airport contact information

Address: Truckee United States

Satellite view of 64CA